Aviation Digital Data Service (ADDS)

Output produced by METARs form (1623 UTC 22 September 2019)
found at http://www.aviationweather.gov/metar/data/
 
KCAK 221551Z 25011KT 10SM FEW130 29/17 A3013 RMK AO2 SLP192 T02890172
KCAK 221140Z 2212/2312 19005KT P6SM SCT150 BKN250 
     FM221400 22015G22KT P6SM FEW050 SCT150 
     FM222200 21012KT P6SM SCT040 BKN150 
     FM230700 22015G22KT P6SM -SHRA SCT005 BKN030